KEKS

Ennis - Big Sky Airport

Ennis, Montana, USA
KEKS 241754Z 2418/2518 VRB06KT P6SM SCT080 BKN110 FM242000 30009KT 6SM -SHRA SCT015 BKN030 FM250100 33008KT P6SM SCT030 BKN060 FM251700 27007KT P6SM SCT050
Issued Valid From Valid To
Sep-24 @ 17:54 UTC
(5 hours ago)
Sep-24 @ 18:00 UTC
(5 hours ago)
Sep-25 @ 18:00 UTC
(in 19 hours)
Expired Click to View Sep-24 @ 18:00 to Sep-24 @ 20:00
KEKS 241754Z 2418/2518 VRB06KT P6SM SCT080 BKN110
Wind Visibility Clouds
Variable at 6 knots Greater than 6 miles
  • Scattered at 8,000' AGL
  • Broken at 11,000' AGL
From Sep-24 @ 20:00 to Sep-25 @ 01:00
FM242000 30009KT 6SM -SHRA SCT015 BKN030
Wind Visibility Clouds Conditions
300° at 9 knots 6 miles
  • Scattered at 1,500' AGL
  • Broken at 3,000' AGL
  • Light Rain
From Sep-25 @ 01:00 to Sep-25 @ 17:00
FM250100 33008KT P6SM SCT030 BKN060
Wind Visibility Clouds
330° at 8 knots Greater than 6 miles
  • Scattered at 3,000' AGL
  • Broken at 6,000' AGL
From Sep-25 @ 17:00 to Sep-25 @ 18:00
FM251700 27007KT P6SM SCT050
Wind Visibility Clouds
270° at 7 knots Greater than 6 miles
  • Scattered at 5,000' AGL
KEKS 241754Z 2418/2518 VRB06KT P6SM SCT080 BKN110 FM242000 30009KT 6SM -SHRA SCT015 BKN030 FM250100 33008KT P6SM SCT030 BKN060 FM251700 27007KT P6SM SCT050
Issued Sep-24 @ 17:54 UTC
(5 hours ago)
Valid From Sep-24 @ 18:00 UTC
(5 hours ago)
Valid To Sep-25 @ 18:00 UTC
(in 19 hours)
Sep-24 @ 18:00 - Sep-24 @ 20:00
Wind Visibility
Variable at 6 knots Greater than 6 miles
Clouds
  • Scattered at 8,000' AGL
  • Broken at 11,000' AGL
From Sep-24 @ 20:00 - Sep-25 @ 01:00
Wind Visibility
300° at 9 knots 6 miles
Clouds
  • Scattered at 1,500' AGL
  • Broken at 3,000' AGL
Conditions
  • Light Rain
From Sep-25 @ 01:00 - Sep-25 @ 17:00
Wind Visibility
330° at 8 knots Greater than 6 miles
Clouds
  • Scattered at 3,000' AGL
  • Broken at 6,000' AGL
From Sep-25 @ 17:00 - Sep-25 @ 18:00
Wind Visibility
270° at 7 knots Greater than 6 miles
Clouds
  • Scattered at 5,000' AGL